createdAt,value
2022-12-26T00:01:40.956Z,13.73
2022-12-26T00:04:51.273Z,14.23
2022-12-26T00:07:55.340Z,14.25
2022-12-26T00:10:57.634Z,14.20
2022-12-26T00:14:01.083Z,14.00
2022-12-26T00:17:03.395Z,15.27
2022-12-26T00:20:06.204Z,15.05
2022-12-26T00:23:08.806Z,14.98
2022-12-26T00:26:12.294Z,15.13
2022-12-26T00:29:14.665Z,15.68
2022-12-26T00:32:16.964Z,14.65
2022-12-26T00:35:19.207Z,16.48
2022-12-26T00:38:21.553Z,15.98
2022-12-26T00:41:24.177Z,15.73
2022-12-26T00:44:26.439Z,16.20
2022-12-26T00:47:28.942Z,15.38
2022-12-26T00:50:34.671Z,16.42
2022-12-26T00:53:37.325Z,16.33
2022-12-26T00:56:39.544Z,18.10
2022-12-26T00:59:41.817Z,16.67
2022-12-26T01:02:44.240Z,17.92
2022-12-26T01:05:49.677Z,15.98
2022-12-26T01:08:52.894Z,16.63
2022-12-26T01:11:55.110Z,16.77
2022-12-26T01:14:57.880Z,17.75
2022-12-26T01:18:00.479Z,17.48
2022-12-26T01:21:07.510Z,17.25
2022-12-26T01:24:09.656Z,18.08
2022-12-26T01:27:11.896Z,17.00
2022-12-26T01:30:14.196Z,16.95
2022-12-26T01:33:16.413Z,17.00
2022-12-26T01:36:18.843Z,18.17
2022-12-26T01:39:21.366Z,18.20
2022-12-26T01:42:25.125Z,18.03
2022-12-26T01:45:31.973Z,17.52
2022-12-26T01:48:34.575Z,18.02
2022-12-26T01:51:40.251Z,16.60
2022-12-26T01:54:43.960Z,16.45
2022-12-26T01:57:48.722Z,17.20
2022-12-26T02:00:51.602Z,17.50
2022-12-26T02:04:12.448Z,17.38
2022-12-26T02:07:14.818Z,15.85
2022-12-26T02:10:21.268Z,16.10
2022-12-26T02:13:23.931Z,16.80
2022-12-26T02:16:26.320Z,17.98
2022-12-26T02:19:46.714Z,16.95
2022-12-26T02:23:12.148Z,16.63
2022-12-26T02:26:23.700Z,16.52
2022-12-26T02:29:29.155Z,16.40
2022-12-26T02:32:40.501Z,16.98
2022-12-26T02:35:55.551Z,16.25
2022-12-26T02:39:00.772Z,16.58
2022-12-26T02:42:05.938Z,17.48
2022-12-26T02:45:26.958Z,16.30
2022-12-26T02:48:43.976Z,17.48
2022-12-26T02:52:13.919Z,16.25
2022-12-26T02:55:36.351Z,17.33
2022-12-26T02:59:16.666Z,18.20
2022-12-26T03:02:49.982Z,17.70
2022-12-26T03:06:19.435Z,15.98
2022-12-26T03:10:00.829Z,16.77
2022-12-26T03:13:11.678Z,16.58
2022-12-26T03:16:33.271Z,16.55
2022-12-26T03:19:37.605Z,16.27
2022-12-26T03:22:56.774Z,18.83
2022-12-26T03:26:19.145Z,20.50
2022-12-26T03:29:41.038Z,20.23
2022-12-26T03:32:44.297Z,18.65
2022-12-26T03:35:46.540Z,23.50
2022-12-26T03:39:07.669Z,20.55
2022-12-26T03:42:44.276Z,22.38
2022-12-26T03:46:13.758Z,20.45
2022-12-26T03:50:01.109Z,20.55
2022-12-26T03:53:31.505Z,18.93
2022-12-26T03:56:54.414Z,19.17
2022-12-26T04:00:18.279Z,19.20
2022-12-26T04:03:40.670Z,19.60
2022-12-26T04:07:09.289Z,23.00
2022-12-26T04:10:32.816Z,23.00
2022-12-26T04:14:12.170Z,23.60
2022-12-26T04:17:41.349Z,23.25
2022-12-26T04:21:36.247Z,28.58
2022-12-26T04:25:03.348Z,27.37
2022-12-26T04:28:24.243Z,25.90
2022-12-26T04:31:50.865Z,24.35
2022-12-26T04:35:23.996Z,26.15
2022-12-26T04:38:47.885Z,24.65
2022-12-26T04:42:09.695Z,22.33
2022-12-26T04:45:13.515Z,23.90
2022-12-26T04:48:34.473Z,22.98
2022-12-26T04:51:36.799Z,23.27
2022-12-26T04:54:39.330Z,25.85
2022-12-26T04:57:41.649Z,22.33
2022-12-26T05:00:43.977Z,23.43
2022-12-26T05:04:09.443Z,22.90
2022-12-26T05:07:49.182Z,22.92
2022-12-26T05:10:51.393Z,20.85
2022-12-26T05:13:54.420Z,22.43
2022-12-26T05:17:15.017Z,19.10
2022-12-26T05:20:49.575Z,20.02
2022-12-26T05:24:10.166Z,18.83
2022-12-26T05:27:32.542Z,19.75
2022-12-26T05:30:34.763Z,19.13
2022-12-26T05:33:55.571Z,17.73
2022-12-26T05:36:59.016Z,17.30
2022-12-26T05:40:01.579Z,16.80
2022-12-26T05:43:03.802Z,17.17
2022-12-26T05:46:07.731Z,15.67
2022-12-26T05:49:10.093Z,17.20
2022-12-26T05:52:12.303Z,17.02
2022-12-26T05:55:14.530Z,16.08
2022-12-26T05:58:16.946Z,16.75
2022-12-26T06:01:19.994Z,17.60
2022-12-26T06:04:22.327Z,20.50
2022-12-26T06:07:24.833Z,19.70
2022-12-26T06:10:29.597Z,20.05
2022-12-26T06:13:32.291Z,21.95
2022-12-26T06:16:34.603Z,19.73
2022-12-26T06:19:41.354Z,20.47
2022-12-26T06:22:46.994Z,20.30
2022-12-26T06:25:56.082Z,19.13
2022-12-26T06:28:58.307Z,17.00
2022-12-26T06:32:00.762Z,18.30
2022-12-26T06:35:03.159Z,18.57
2022-12-26T06:38:05.523Z,18.92
2022-12-26T06:41:08.883Z,17.83
2022-12-26T06:44:17.794Z,18.40
2022-12-26T06:47:20.491Z,18.07
2022-12-26T06:50:23.355Z,17.53
2022-12-26T06:53:25.565Z,17.00
2022-12-26T06:56:28.407Z,17.02
2022-12-26T06:59:30.671Z,17.17
2022-12-26T07:02:32.989Z,18.63
2022-12-26T07:05:38.941Z,19.40
2022-12-26T07:08:41.184Z,19.10
2022-12-26T07:11:44.763Z,20.13
2022-12-26T07:14:47.241Z,20.40
2022-12-26T07:17:49.445Z,22.55
2022-12-26T07:20:51.606Z,24.77
2022-12-26T07:23:54.616Z,26.63
2022-12-26T07:26:56.922Z,26.17
2022-12-26T07:29:59.176Z,26.70
2022-12-26T07:33:01.558Z,26.75
2022-12-26T07:36:05.085Z,26.37
2022-12-26T07:39:07.435Z,27.10
2022-12-26T07:42:10.231Z,27.70
2022-12-26T07:45:12.409Z,25.00
2022-12-26T07:48:14.691Z,25.20
2022-12-26T07:51:17.044Z,23.53
2022-12-26T07:54:19.793Z,25.55
2022-12-26T07:57:47.560Z,25.33
2022-12-26T08:00:44.264Z,24.83
2022-12-26T08:03:48.240Z,24.33
2022-12-26T08:06:50.605Z,23.83
2022-12-26T08:09:52.868Z,23.48
2022-12-26T08:12:55.208Z,22.92
2022-12-26T08:15:57.917Z,25.38
2022-12-26T08:19:02.974Z,25.85
2022-12-26T08:22:05.853Z,26.20
2022-12-26T08:25:08.642Z,27.73
2022-12-26T08:28:10.888Z,28.02
2022-12-26T08:31:13.545Z,29.27
2022-12-26T08:34:15.795Z,28.00
2022-12-26T08:37:18.101Z,28.67
2022-12-26T08:40:39.905Z,28.85
2022-12-26T08:44:24.870Z,30.25
2022-12-26T08:47:05.171Z,30.75
2022-12-26T08:50:07.459Z,30.58
2022-12-26T08:53:09.720Z,28.10
2022-12-26T08:56:13.784Z,28.35
2022-12-26T08:59:16.351Z,28.55
2022-12-26T09:02:18.799Z,26.92
2022-12-26T09:05:21.441Z,26.60
2022-12-26T09:08:23.614Z,26.03
2022-12-26T09:11:27.052Z,25.25
2022-12-26T09:14:29.407Z,26.63
2022-12-26T09:17:31.674Z,26.15
2022-12-26T09:20:33.980Z,25.70
2022-12-26T09:23:36.777Z,24.97
2022-12-26T09:26:39.185Z,24.17
2022-12-26T09:29:41.580Z,25.10
2022-12-26T09:32:43.827Z,23.83
2022-12-26T09:35:46.377Z,22.90
2022-12-26T09:38:49.359Z,22.50
2022-12-26T09:42:00.411Z,23.17
2022-12-26T09:45:14.811Z,21.33
2022-12-26T09:48:23.754Z,21.05
2022-12-26T09:51:26.991Z,22.92
2022-12-26T09:54:44.164Z,22.27
2022-12-26T09:57:49.232Z,20.55
2022-12-26T10:00:53.994Z,20.55
2022-12-26T10:03:57.701Z,19.52
2022-12-26T10:07:06.060Z,19.20
2022-12-26T10:10:10.115Z,18.43
2022-12-26T10:13:18.737Z,20.23
2022-12-26T10:16:24.550Z,18.63
2022-12-26T10:19:42.066Z,20.45
2022-12-26T10:22:52.218Z,19.80
2022-12-26T10:25:54.492Z,19.57
2022-12-26T10:29:02.281Z,19.67
2022-12-26T10:32:12.148Z,19.15
2022-12-26T10:35:28.771Z,19.67
2022-12-26T10:38:37.557Z,18.27
2022-12-26T10:41:42.869Z,19.00
2022-12-26T10:44:45.077Z,19.98
2022-12-26T10:47:48.328Z,20.00
2022-12-26T10:50:50.603Z,18.98
2022-12-26T10:53:53.678Z,19.33
2022-12-26T10:56:57.108Z,18.13
2022-12-26T10:59:59.721Z,19.50
2022-12-26T11:03:03.992Z,19.80
2022-12-26T11:06:08.474Z,19.35
2022-12-26T11:09:30.291Z,19.13
2022-12-26T11:12:42.781Z,18.60
2022-12-26T11:15:49.587Z,18.08
2022-12-26T11:18:52.290Z,17.73
2022-12-26T11:21:54.651Z,18.92
2022-12-26T11:25:15.706Z,17.58
2022-12-26T11:28:21.365Z,18.63
2022-12-26T11:31:26.902Z,19.00
2022-12-26T11:34:34.520Z,20.15
2022-12-26T11:37:41.652Z,20.48
2022-12-26T11:41:08.191Z,19.55
2022-12-26T11:44:10.418Z,19.13
2022-12-26T11:47:13.488Z,21.42
2022-12-26T11:50:21.362Z,20.30
2022-12-26T11:53:23.590Z,19.02
2022-12-26T11:56:27.047Z,18.90
2022-12-26T11:59:29.453Z,19.07
2022-12-26T12:02:32.515Z,18.48
2022-12-26T12:05:53.393Z,19.52
2022-12-26T12:09:05.417Z,19.67
2022-12-26T12:12:22.709Z,19.80
2022-12-26T12:15:41.401Z,20.00
2022-12-26T12:18:50.420Z,19.52
2022-12-26T12:21:55.831Z,19.50
2022-12-26T12:24:58.512Z,19.92
2022-12-26T12:28:08.012Z,20.30
2022-12-26T12:31:25.624Z,20.50
2022-12-26T12:34:43.262Z,20.00
2022-12-26T12:38:04.491Z,20.83
2022-12-26T12:41:11.197Z,19.75
2022-12-26T12:44:14.924Z,20.48
2022-12-26T12:47:17.142Z,20.33
2022-12-26T12:50:31.326Z,20.73
2022-12-26T12:53:36.746Z,19.50
2022-12-26T12:56:54.215Z,19.45
2022-12-26T12:59:56.416Z,18.45
2022-12-26T13:03:05.253Z,17.87
2022-12-26T13:06:07.728Z,17.35
2022-12-26T13:09:16.554Z,16.45
2022-12-26T13:12:21.302Z,15.45
2022-12-26T13:15:23.504Z,15.27
2022-12-26T13:18:29.573Z,15.43
2022-12-26T13:21:35.272Z,17.30
2022-12-26T13:24:43.367Z,16.48
2022-12-26T13:27:46.786Z,17.00
2022-12-26T13:30:53.178Z,16.30
2022-12-26T13:33:56.312Z,16.77
2022-12-26T13:36:59.644Z,16.85
2022-12-26T13:40:03.336Z,16.80
2022-12-26T13:43:24.331Z,16.55
2022-12-26T13:46:32.876Z,15.68
2022-12-26T13:49:36.566Z,16.50
2022-12-26T13:52:40.213Z,15.02
2022-12-26T13:55:43.177Z,15.18
2022-12-26T13:58:54.446Z,14.18
2022-12-26T14:01:58.285Z,14.45
2022-12-26T14:05:14.738Z,15.00
2022-12-26T14:08:29.625Z,14.50
2022-12-26T14:11:31.854Z,14.98
2022-12-26T14:14:34.068Z,15.93
2022-12-26T14:17:54.833Z,15.00
2022-12-26T14:21:12.416Z,19.93
2022-12-26T14:24:37.983Z,20.98
2022-12-26T14:28:03.565Z,20.23
2022-12-26T14:31:11.331Z,20.48
2022-12-26T14:34:32.357Z,21.33
2022-12-26T14:38:03.931Z,20.80
2022-12-26T14:41:07.889Z,23.52
2022-12-26T14:44:18.185Z,21.65
2022-12-26T14:47:39.239Z,21.63
2022-12-26T14:50:44.823Z,21.02
2022-12-26T14:54:06.968Z,19.27
2022-12-26T14:57:28.074Z,19.38
2022-12-26T15:00:31.647Z,20.00
2022-12-26T15:03:40.761Z,20.95
2022-12-26T15:06:46.011Z,20.70
2022-12-26T15:09:56.639Z,19.53
2022-12-26T15:13:11.049Z,19.80
2022-12-26T15:16:31.504Z,19.88
2022-12-26T15:19:52.366Z,19.17
2022-12-26T15:23:12.918Z,23.13
2022-12-26T15:26:24.111Z,22.37
2022-12-26T15:29:46.008Z,23.30
2022-12-26T15:32:57.461Z,23.63
2022-12-26T15:36:14.771Z,22.45
2022-12-26T15:39:35.901Z,24.45
2022-12-26T15:42:42.782Z,23.37
2022-12-26T15:45:45.314Z,25.92
2022-12-26T15:49:06.024Z,21.75
2022-12-26T15:52:24.591Z,25.00
2022-12-26T15:55:36.647Z,24.70
2022-12-26T15:58:38.853Z,27.97
2022-12-26T16:01:42.556Z,27.88
2022-12-26T16:04:48.935Z,29.50
2022-12-26T16:07:54.415Z,32.20
2022-12-26T16:11:26.285Z,31.13
2022-12-26T16:14:33.669Z,33.43
2022-12-26T16:17:36.285Z,34.60
2022-12-26T16:20:57.381Z,34.97
2022-12-26T16:24:00.203Z,36.92
2022-12-26T16:27:03.820Z,37.10
2022-12-26T16:30:11.957Z,31.70
2022-12-26T16:33:14.905Z,30.92
2022-12-26T16:36:21.652Z,35.97
2022-12-26T16:39:23.965Z,36.58
2022-12-26T16:42:29.138Z,34.08
2022-12-26T16:45:33.447Z,30.50
2022-12-26T16:48:36.023Z,35.08
2022-12-26T16:51:38.266Z,35.70
2022-12-26T16:54:42.454Z,32.53
2022-12-26T16:57:44.679Z,30.30
2022-12-26T17:01:07.739Z,29.17
2022-12-26T17:04:13.232Z,29.95
2022-12-26T17:07:16.584Z,30.55
2022-12-26T17:10:20.388Z,30.27
2022-12-26T17:13:24.912Z,32.28
2022-12-26T17:16:28.505Z,32.90
2022-12-26T17:19:32.055Z,30.58
2022-12-26T17:22:35.320Z,30.38
2022-12-26T17:25:37.564Z,32.97
2022-12-26T17:28:39.718Z,37.28
2022-12-26T17:31:43.413Z,35.03
2022-12-26T17:34:45.704Z,36.75
2022-12-26T17:37:50.298Z,32.53
2022-12-26T17:40:54.197Z,33.55
2022-12-26T17:43:57.722Z,32.10
2022-12-26T17:47:01.940Z,33.67
2022-12-26T17:50:04.347Z,30.40
2022-12-26T17:53:12.755Z,31.52
2022-12-26T17:56:21.033Z,33.60
2022-12-26T17:59:23.400Z,32.23
2022-12-26T18:02:25.726Z,34.67
2022-12-26T18:05:28.204Z,34.95
2022-12-26T18:08:34.640Z,39.83
2022-12-26T18:11:36.938Z,38.33
2022-12-26T18:14:39.364Z,41.57
2022-12-26T18:17:42.113Z,45.53
2022-12-26T18:20:44.498Z,38.13
2022-12-26T18:23:46.835Z,38.13
2022-12-26T18:26:49.921Z,34.80
2022-12-26T18:29:52.241Z,34.37
2022-12-26T18:32:54.927Z,33.00
2022-12-26T18:35:57.303Z,37.88
2022-12-26T18:38:59.839Z,39.90
2022-12-26T18:42:02.196Z,35.85
2022-12-26T18:45:04.888Z,35.40
2022-12-26T18:48:08.085Z,35.53
2022-12-26T18:51:10.423Z,34.47
2022-12-26T18:54:12.647Z,38.97
2022-12-26T18:57:19.658Z,40.55
2022-12-26T19:00:22.513Z,42.63
2022-12-26T19:03:27.854Z,40.77
2022-12-26T19:06:35.163Z,43.38
2022-12-26T19:09:37.506Z,38.13
2022-12-26T19:12:39.710Z,37.88
2022-12-26T19:15:44.919Z,39.33
2022-12-26T19:18:47.164Z,38.63
2022-12-26T19:21:49.403Z,41.33
2022-12-26T19:24:51.684Z,43.10
2022-12-26T19:27:54.310Z,43.00
2022-12-26T19:30:56.566Z,42.70
2022-12-26T19:33:58.998Z,46.10
2022-12-26T19:37:01.334Z,48.17
2022-12-26T19:40:04.750Z,48.25
2022-12-26T19:43:07.063Z,50.25
2022-12-26T19:46:12.841Z,50.60
2022-12-26T19:49:15.148Z,47.53
2022-12-26T19:52:17.587Z,49.50
2022-12-26T19:55:19.949Z,51.05
2022-12-26T19:58:22.500Z,51.38
2022-12-26T20:01:26.541Z,52.50
2022-12-26T20:04:28.898Z,49.60
2022-12-26T20:07:31.261Z,48.25
2022-12-26T20:10:33.765Z,45.63
2022-12-26T20:13:36.223Z,42.17
2022-12-26T20:17:04.432Z,39.17
2022-12-26T20:20:00.957Z,40.03
2022-12-26T20:23:03.180Z,50.78
2022-12-26T20:26:07.879Z,42.95
2022-12-26T20:29:10.124Z,43.08
2022-12-26T20:32:12.469Z,41.47
2022-12-26T20:35:15.151Z,37.13
2022-12-26T20:38:17.372Z,41.22
2022-12-26T20:41:20.567Z,39.63
2022-12-26T20:44:24.545Z,39.50
2022-12-26T20:47:26.849Z,38.47
2022-12-26T20:50:29.247Z,37.27
2022-12-26T20:53:31.660Z,36.15
2022-12-26T20:56:34.756Z,36.20
2022-12-26T20:59:37.468Z,35.30
2022-12-26T21:02:39.869Z,34.50
2022-12-26T21:05:42.345Z,35.70
2022-12-26T21:08:46.165Z,41.10
2022-12-26T21:11:48.554Z,38.97
2022-12-26T21:14:51.099Z,38.53
2022-12-26T21:17:53.301Z,38.72
2022-12-26T21:20:55.480Z,38.73
2022-12-26T21:24:02.692Z,40.70
2022-12-26T21:27:05.128Z,41.10
2022-12-26T21:30:07.632Z,41.40
2022-12-26T21:33:09.950Z,45.40
2022-12-26T21:36:13.043Z,45.53
2022-12-26T21:39:15.450Z,48.03
2022-12-26T21:42:17.725Z,50.70
2022-12-26T21:45:19.928Z,50.75
2022-12-26T21:48:22.286Z,50.73
2022-12-26T21:51:25.928Z,50.03
2022-12-26T21:54:49.024Z,44.45
2022-12-26T21:57:51.873Z,45.00
2022-12-26T22:00:54.020Z,41.70
2022-12-26T22:04:14.866Z,40.13
2022-12-26T22:07:17.048Z,39.07
2022-12-26T22:10:38.127Z,37.55
2022-12-26T22:13:41.570Z,36.83
2022-12-26T22:16:43.887Z,35.70
2022-12-26T22:19:46.237Z,32.63
2022-12-26T22:22:49.333Z,32.80
2022-12-26T22:25:55.270Z,34.22
2022-12-26T22:28:58.139Z,30.15
2022-12-26T22:32:00.408Z,31.95
2022-12-26T22:35:03.018Z,30.58
2022-12-26T22:38:05.269Z,29.73
2022-12-26T22:41:07.672Z,30.52
2022-12-26T22:44:09.900Z,29.08
2022-12-26T22:47:12.263Z,30.08
2022-12-26T22:50:16.273Z,30.00
2022-12-26T22:53:18.651Z,28.83
2022-12-26T22:56:20.928Z,33.60
2022-12-26T22:59:58.008Z,34.60
2022-12-26T23:02:45.541Z,32.90
2022-12-26T23:05:48.147Z,30.45
2022-12-26T23:08:51.177Z,31.17
2022-12-26T23:12:11.959Z,32.05
2022-12-26T23:15:15.559Z,33.30
2022-12-26T23:18:39.535Z,34.08
2022-12-26T23:21:42.372Z,41.55
2022-12-26T23:24:44.858Z,40.67
2022-12-26T23:28:05.786Z,40.75
2022-12-26T23:31:08.714Z,42.70
2022-12-26T23:34:11.077Z,43.15
2022-12-26T23:37:13.216Z,43.67
2022-12-26T23:40:16.449Z,40.83
2022-12-26T23:43:18.697Z,42.78
2022-12-26T23:46:21.038Z,42.83
2022-12-26T23:49:23.279Z,40.35
2022-12-26T23:52:30.067Z,40.05
2022-12-26T23:55:32.803Z,37.83
2022-12-26T23:58:35.161Z,36.50
